Time;durP1;ratioP1;P1;durP2;ratioP2;P2;SDS_P1;SDS_P2;PMS_P1;PMS_P2;Temp;Humidity;BMP_temperature;BMP_pressure;BME280_temperature;BME280_humidity;BME280_pressure;Samples;Min_cycle;Max_cycle;Signal;HPM_P1;HPM_P2
2023/12/29 00:01:47;;;;;;;43.72;41.78;;;;;;;;;;5112572;28;20048;-67
2023/12/29 00:04:14;;;;;;;49.55;47.15;;;;;;;;;;5112375;28;20048;-67
2023/12/29 00:06:40;;;;;;;40.33;38.67;;;;;;;;;;5112930;28;20111;-69
2023/12/29 00:09:07;;;;;;;46.00;44.15;;;;;;;;;;5112563;28;20047;-67
2023/12/29 00:11:35;;;;;;;43.80;41.92;;;;;;;;;;5112465;28;20051;-67
2023/12/29 00:14:01;;;;;;;40.30;38.20;;;;;;;;;;5112249;28;20055;-68
2023/12/29 00:16:28;;;;;;;48.35;46.55;;;;;;;;;;5112303;28;20051;-67
2023/12/29 00:18:55;;;;;;;39.65;37.60;;;;;;;;;;5112143;28;20126;-68
2023/12/29 00:21:22;;;;;;;39.63;37.83;;;;;;;;;;5112340;28;20100;-68
2023/12/29 00:23:49;;;;;;;37.22;35.70;;;;;;;;;;5112104;28;20075;-68
2023/12/29 00:26:17;;;;;;;44.72;42.97;;;;;;;;;;5112355;28;20087;-68
2023/12/29 00:28:45;;;;;;;38.33;36.90;;;;;;;;;;5112134;28;20343;-68
2023/12/29 00:31:15;;;;;;;44.10;42.47;;;;;;;;;;5111826;28;20121;-67
2023/12/29 00:33:41;;;;;;;35.92;34.53;;;;;;;;;;5111911;28;20134;-68
2023/12/29 00:36:08;;;;;;;31.50;30.20;;;;;;;;;;5091777;28;20078;-68
2023/12/29 00:38:35;;;;;;;40.92;39.13;;;;;;;;;;5091611;28;20052;-68
2023/12/29 00:41:01;;;;;;;21.42;20.33;;;;;;;;;;5091937;28;20464;-68
2023/12/29 00:43:28;;;;;;;38.03;36.60;;;;;;;;;;5091673;28;20047;-67
2023/12/29 00:45:56;;;;;;;41.50;39.75;;;;;;;;;;5091574;28;20052;-68
2023/12/29 00:48:22;;;;;;;35.88;34.42;;;;;;;;;;5096084;28;20116;-68
2023/12/29 00:50:48;;;;;;;49.33;47.42;;;;;;;;;;5112072;28;20104;-67
2023/12/29 00:53:15;;;;;;;40.72;38.60;;;;;;;;;;5112037;28;20055;-68
2023/12/29 00:55:41;;;;;;;46.67;44.70;;;;;;;;;;5111680;28;20105;-69
2023/12/29 00:58:08;;;;;;;44.67;42.78;;;;;;;;;;5112023;28;20047;-68
2023/12/29 01:00:34;;;;;;;40.13;38.20;;;;;;;;;;5111853;28;20569;-69
2023/12/29 01:03:02;;;;;;;35.88;34.30;;;;;;;;;;5111863;28;20120;-68
2023/12/29 01:05:29;;;;;;;41.10;39.20;;;;;;;;;;5111579;28;20096;-68
2023/12/29 01:07:55;;;;;;;43.45;41.53;;;;;;;;;;5111526;28;20093;-68
2023/12/29 01:10:22;;;;;;;40.47;38.78;;;;;;;;;;5111799;28;20048;-68
2023/12/29 01:12:48;;;;;;;58.00;55.58;;;;;;;;;;5111679;28;20059;-67
2023/12/29 01:15:15;;;;;;;47.90;45.22;;;;;;;;;;5111529;28;20221;-68
2023/12/29 01:17:41;;;;;;;42.38;40.20;;;;;;;;;;5111825;28;20039;-69
2023/12/29 01:20:10;;;;;;;33.35;31.75;;;;;;;;;;5111880;28;20558;-69
2023/12/29 01:22:36;;;;;;;41.22;39.45;;;;;;;;;;5111454;28;20044;-69
2023/12/29 01:25:03;;;;;;;43.60;41.22;;;;;;;;;;5111627;28;20105;-68
2023/12/29 01:27:30;;;;;;;39.42;37.10;;;;;;;;;;5111480;28;20538;-69
2023/12/29 01:29:56;;;;;;;43.55;41.95;;;;;;;;;;5111442;28;20047;-69
2023/12/29 01:32:23;;;;;;;24.27;21.85;;;;;;;;;;5111386;28;20413;-69
2023/12/29 01:34:49;;;;;;;47.15;45.08;;;;;;;;;;5111524;28;20051;-70
2023/12/29 01:37:17;;;;;;;46.55;44.15;;;;;;;;;;5111718;28;20504;-70
2023/12/29 01:39:43;;;;;;;47.75;45.67;;;;;;;;;;5111526;28;20089;-70
2023/12/29 01:42:11;;;;;;;41.80;40.00;;;;;;;;;;5111371;28;20113;-71
2023/12/29 01:44:37;;;;;;;41.83;39.90;;;;;;;;;;5111316;28;20044;-70
2023/12/29 01:47:05;;;;;;;46.97;44.85;;;;;;;;;;5114015;28;20101;-69
2023/12/29 01:49:33;;;;;;;40.42;38.58;;;;;;;;;;5114959;28;20083;-70
2023/12/29 01:52:01;;;;;;;41.85;39.75;;;;;;;;;;5114961;28;20056;-69
2023/12/29 01:54:31;;;;;;;48.70;46.40;;;;;;;;;;5114957;28;20044;-69
2023/12/29 01:56:59;;;;;;;34.13;32.78;;;;;;;;;;5115034;28;20112;-68
2023/12/29 01:59:26;;;;;;;40.47;39.00;;;;;;;;;;5114800;28;20052;-69
2023/12/29 02:01:53;;;;;;;38.83;37.05;;;;;;;;;;5114969;28;20485;-69
2023/12/29 02:04:20;;;;;;;45.03;43.15;;;;;;;;;;5114402;28;20081;-69
2023/12/29 02:06:46;;;;;;;46.00;43.90;;;;;;;;;;5114749;28;20097;-70
2023/12/29 02:09:13;;;;;;;34.65;33.40;;;;;;;;;;5114787;28;20047;-69
2023/12/29 02:11:41;;;;;;;46.72;44.92;;;;;;;;;;5114752;28;20502;-70
2023/12/29 02:14:07;;;;;;;44.80;42.85;;;;;;;;;;5114728;28;20101;-67
2023/12/29 02:16:37;;;;;;;48.08;46.13;;;;;;;;;;5115071;28;20060;-68
2023/12/29 02:19:09;;;;;;;35.80;34.30;;;;;;;;;;5114532;28;20104;-69
2023/12/29 02:21:36;;;;;;;39.25;37.70;;;;;;;;;;5114661;28;20120;-69
2023/12/29 02:24:02;;;;;;;36.97;35.33;;;;;;;;;;5113955;28;20109;-69
2023/12/29 02:26:33;;;;;;;38.28;36.60;;;;;;;;;;5114287;28;20051;-68
2023/12/29 02:29:02;;;;;;;41.92;39.78;;;;;;;;;;5114397;28;20120;-70
2023/12/29 02:31:31;;;;;;;41.40;39.42;;;;;;;;;;5114184;28;20046;-69
2023/12/29 02:33:58;;;;;;;45.38;43.45;;;;;;;;;;5114244;28;20055;-68
2023/12/29 02:36:25;;;;;;;35.50;34.10;;;;;;;;;;5114142;28;20121;-68
2023/12/29 02:38:52;;;;;;;36.28;34.55;;;;;;;;;;5114221;28;20098;-69
2023/12/29 02:41:18;;;;;;;41.58;39.90;;;;;;;;;;5114052;28;20039;-69
2023/12/29 02:43:46;;;;;;;54.35;52.15;;;;;;;;;;5113842;28;20047;-67
2023/12/29 02:46:12;;;;;;;37.45;35.75;;;;;;;;;;5114162;28;20051;-69
2023/12/29 02:48:39;;;;;;;47.95;46.08;;;;;;;;;;5113821;28;20085;-68
2023/12/29 02:51:08;;;;;;;22.13;21.15;;;;;;;;;;5114121;28;20474;-70
2023/12/29 02:53:34;;;;;;;44.17;42.47;;;;;;;;;;5114085;28;20043;-68
2023/12/29 02:56:01;;;;;;;50.47;47.92;;;;;;;;;;5113940;28;20120;-68
2023/12/29 02:58:27;;;;;;;48.70;46.55;;;;;;;;;;5112649;28;20048;-69
2023/12/29 03:00:55;;;;;;;48.03;45.80;;;;;;;;;;5113416;28;20043;-68
2023/12/29 03:03:22;;;;;;;52.55;50.55;;;;;;;;;;5113699;28;20040;-68
2023/12/29 03:05:48;;;;;;;56.95;54.83;;;;;;;;;;5113556;28;20051;-68
2023/12/29 03:08:15;;;;;;;45.42;43.35;;;;;;;;;;5113806;28;20509;-69
2023/12/29 03:10:41;;;;;;;42.33;40.00;;;;;;;;;;5113575;28;20476;-68
2023/12/29 03:13:07;;;;;;;38.45;36.67;;;;;;;;;;5113567;28;20051;-69
2023/12/29 03:15:34;;;;;;;44.15;41.80;;;;;;;;;;5113340;28;20089;-69
2023/12/29 03:18:02;;;;;;;32.35;30.83;;;;;;;;;;5113020;28;20390;-70
2023/12/29 03:20:28;;;;;;;41.03;38.95;;;;;;;;;;5113334;28;20093;-69
2023/12/29 03:22:55;;;;;;;48.20;45.38;;;;;;;;;;5113404;28;20576;-69
2023/12/29 03:25:21;;;;;;;40.05;37.85;;;;;;;;;;5113340;28;20043;-69
2023/12/29 03:27:48;;;;;;;41.65;39.85;;;;;;;;;;5113063;28;20748;-70
2023/12/29 03:30:14;;;;;;;45.80;43.53;;;;;;;;;;5113269;28;20051;-69
2023/12/29 03:32:41;;;;;;;43.63;41.35;;;;;;;;;;5113481;28;20044;-70
2023/12/29 03:35:09;;;;;;;48.97;46.72;;;;;;;;;;5112888;28;20052;-69
2023/12/29 03:37:35;;;;;;;46.92;44.65;;;;;;;;;;5112787;28;20055;-69
2023/12/29 03:40:02;;;;;;;51.17;49.13;;;;;;;;;;5113053;28;20179;-68
2023/12/29 03:42:28;;;;;;;51.95;49.70;;;;;;;;;;5112905;28;20052;-68
2023/12/29 03:44:55;;;;;;;51.92;49.58;;;;;;;;;;5112713;28;20048;-70
2023/12/29 03:47:21;;;;;;;36.85;34.22;;;;;;;;;;5112973;28;20471;-69
2023/12/29 03:49:48;;;;;;;42.38;40.25;;;;;;;;;;5112403;28;20047;-69
2023/12/29 03:52:15;;;;;;;43.63;41.20;;;;;;;;;;5112713;28;20052;-68
2023/12/29 03:54:42;;;;;;;45.72;43.28;;;;;;;;;;5112384;28;20543;-69
2023/12/29 03:57:08;;;;;;;26.38;25.10;;;;;;;;;;5113028;28;20463;-68
2023/12/29 03:59:37;;;;;;;43.55;41.75;;;;;;;;;;5112131;28;20059;-70
2023/12/29 04:02:03;;;;;;;37.22;35.83;;;;;;;;;;5112519;28;20055;-69
2023/12/29 04:04:30;;;;;;;43.60;41.25;;;;;;;;;;5112572;28;20784;-69
2023/12/29 04:06:56;;;;;;;43.15;41.35;;;;;;;;;;5112652;28;20069;-68
2023/12/29 04:09:24;;;;;;;36.35;34.65;;;;;;;;;;5112163;28;20083;-68
2023/12/29 04:11:51;;;;;;;38.22;36.65;;;;;;;;;;5112605;28;20112;-68
2023/12/29 04:14:17;;;;;;;48.33;46.28;;;;;;;;;;5112564;28;20105;-68
2023/12/29 04:16:44;;;;;;;36.13;34.53;;;;;;;;;;5112438;28;20113;-68
2023/12/29 04:19:10;;;;;;;42.92;41.17;;;;;;;;;;5112219;28;20047;-68
2023/12/29 04:21:36;;;;;;;45.75;43.63;;;;;;;;;;5112148;28;20100;-68
2023/12/29 04:24:03;;;;;;;43.78;41.72;;;;;;;;;;5111914;28;20138;-68
2023/12/29 04:26:35;;;;;;;49.72;47.88;;;;;;;;;;5112319;28;20109;-68
2023/12/29 04:29:02;;;;;;;47.45;45.60;;;;;;;;;;5111927;28;20039;-68
2023/12/29 04:31:28;;;;;;;42.53;40.45;;;;;;;;;;5112127;28;20083;-68
2023/12/29 04:33:55;;;;;;;51.15;48.55;;;;;;;;;;5112144;28;20494;-70
2023/12/29 04:36:21;;;;;;;46.67;44.83;;;;;;;;;;5112045;28;20104;-69
2023/12/29 04:38:48;;;;;;;50.83;48.72;;;;;;;;;;5112255;28;20048;-68
2023/12/29 04:41:14;;;;;;;47.10;45.08;;;;;;;;;;5112057;28;20104;-69
2023/12/29 04:43:42;;;;;;;54.35;51.97;;;;;;;;;;5111663;28;20093;-71
2023/12/29 04:46:09;;;;;;;35.80;34.25;;;;;;;;;;5111983;28;20455;-69
2023/12/29 04:48:35;;;;;;;51.17;48.55;;;;;;;;;;5111873;28;20108;-70
2023/12/29 04:51:02;;;;;;;43.92;42.03;;;;;;;;;;5111873;28;20055;-69
2023/12/29 04:53:28;;;;;;;49.78;47.58;;;;;;;;;;5111998;28;20055;-69
2023/12/29 04:55:54;;;;;;;56.20;53.58;;;;;;;;;;5111626;28;20056;-68
2023/12/29 04:58:21;;;;;;;60.22;57.80;;;;;;;;;;5111930;28;20486;-69
2023/12/29 05:00:49;;;;;;;33.50;31.52;;;;;;;;;;5111796;28;20391;-69
2023/12/29 05:03:15;;;;;;;31.92;30.50;;;;;;;;;;5111857;28;20391;-71
2023/12/29 05:05:42;;;;;;;53.33;51.10;;;;;;;;;;5111703;28;20180;-69
2023/12/29 05:08:08;;;;;;;40.88;39.30;;;;;;;;;;5111908;28;20051;-68
2023/12/29 05:10:36;;;;;;;48.00;45.00;;;;;;;;;;5111605;28;20044;-69
2023/12/29 05:13:03;;;;;;;55.38;52.35;;;;;;;;;;5111666;28;20066;-69
2023/12/29 05:15:29;;;;;;;62.55;60.22;;;;;;;;;;5111669;28;20052;-68
2023/12/29 05:17:57;;;;;;;43.00;41.05;;;;;;;;;;5111811;28;20060;-68
2023/12/29 05:20:23;;;;;;;47.72;45.72;;;;;;;;;;5111531;28;20096;-69
2023/12/29 05:22:50;;;;;;;47.50;44.88;;;;;;;;;;5115730;28;20108;-69
2023/12/29 05:25:16;;;;;;;55.15;52.40;;;;;;;;;;5115180;28;20039;-68
2023/12/29 05:27:43;;;;;;;53.97;50.90;;;;;;;;;;5115572;28;20051;-68
2023/12/29 05:30:10;;;;;;;61.33;57.80;;;;;;;;;;5115189;28;20104;-69
2023/12/29 05:32:36;;;;;;;49.83;47.55;;;;;;;;;;5115427;28;20485;-70
2023/12/29 05:35:05;;;;;;;64.45;61.83;;;;;;;;;;5115327;28;20378;-69
2023/12/29 05:37:31;;;;;;;50.20;47.80;;;;;;;;;;5115256;28;20055;-69
2023/12/29 05:39:58;;;;;;;51.22;49.08;;;;;;;;;;5115265;28;20055;-69
2023/12/29 05:42:24;;;;;;;49.53;47.42;;;;;;;;;;5115077;28;20051;-69
2023/12/29 05:44:51;;;;;;;52.85;50.92;;;;;;;;;;5114976;28;20055;-71
2023/12/29 05:47:18;;;;;;;53.05;50.75;;;;;;;;;;5115139;28;20066;-70
2023/12/29 05:49:44;;;;;;;51.03;49.13;;;;;;;;;;5113520;28;20066;-70
2023/12/29 05:52:12;;;;;;;48.08;46.20;;;;;;;;;;5115096;28;20048;-70
2023/12/29 05:54:39;;;;;;;54.33;51.88;;;;;;;;;;5115115;28;20043;-70
2023/12/29 05:57:05;;;;;;;52.67;50.13;;;;;;;;;;5114858;28;20085;-70
2023/12/29 05:59:32;;;;;;;47.33;45.45;;;;;;;;;;5115003;28;20043;-70
2023/12/29 06:01:58;;;;;;;47.20;45.22;;;;;;;;;;5114788;28;20043;-69
2023/12/29 06:04:25;;;;;;;45.08;43.28;;;;;;;;;;5114717;28;20577;-70
2023/12/29 06:06:51;;;;;;;51.22;49.38;;;;;;;;;;5114506;28;20051;-70
2023/12/29 06:09:19;;;;;;;44.63;42.97;;;;;;;;;;5114866;28;20059;-69
2023/12/29 06:11:46;;;;;;;52.50;49.90;;;;;;;;;;5094362;28;20600;-69
2023/12/29 06:14:12;;;;;;;48.10;46.20;;;;;;;;;;5094057;28;20047;-69
2023/12/29 06:16:39;;;;;;;51.22;49.15;;;;;;;;;;5113014;28;20489;-69
2023/12/29 06:19:05;;;;;;;47.58;45.08;;;;;;;;;;5114770;28;20078;-69
2023/12/29 06:21:32;;;;;;;44.60;42.80;;;;;;;;;;5114177;28;20062;-70
2023/12/29 06:23:58;;;;;;;47.15;45.40;;;;;;;;;;5114202;28;20062;-70
2023/12/29 06:26:26;;;;;;;55.88;53.88;;;;;;;;;;5114190;28;20074;-70
2023/12/29 06:28:53;;;;;;;49.42;47.40;;;;;;;;;;5113944;28;20398;-69
2023/12/29 06:31:19;;;;;;;48.80;46.70;;;;;;;;;;5114032;28;20050;-68
2023/12/29 06:33:46;;;;;;;47.10;44.83;;;;;;;;;;5114410;28;20051;-69
2023/12/29 06:36:13;;;;;;;44.55;42.78;;;;;;;;;;5114247;28;20048;-69
2023/12/29 06:38:40;;;;;;;51.92;49.45;;;;;;;;;;5114240;28;20052;-69
2023/12/29 06:41:06;;;;;;;49.70;47.45;;;;;;;;;;5114122;28;20079;-69
2023/12/29 06:43:34;;;;;;;51.75;49.78;;;;;;;;;;5109223;27;20047;-70
2023/12/29 06:46:01;;;;;;;48.50;46.47;;;;;;;;;;5101890;28;20143;-70
2023/12/29 06:48:27;;;;;;;46.85;44.97;;;;;;;;;;5102542;27;20048;-69
2023/12/29 06:50:54;;;;;;;51.05;48.67;;;;;;;;;;5093862;28;20044;-69
2023/12/29 06:53:20;;;;;;;48.05;45.72;;;;;;;;;;5111528;28;20047;-69
2023/12/29 06:55:47;;;;;;;51.30;49.22;;;;;;;;;;5113514;28;20089;-71
2023/12/29 06:58:13;;;;;;;51.05;48.25;;;;;;;;;;5112927;28;20056;-70
2023/12/29 07:00:41;;;;;;;42.33;40.50;;;;;;;;;;5118876;27;20058;-69
2023/12/29 07:03:08;;;;;;;51.30;49.35;;;;;;;;;;5105876;28;20062;-68
2023/12/29 07:05:34;;;;;;;48.58;46.75;;;;;;;;;;5112809;27;20054;-70
2023/12/29 07:08:01;;;;;;;42.83;41.08;;;;;;;;;;5108169;28;20059;-70
2023/12/29 07:10:27;;;;;;;48.42;46.15;;;;;;;;;;5110058;28;20043;-69
2023/12/29 07:12:54;;;;;;;40.28;38.42;;;;;;;;;;5112920;28;20047;-69
2023/12/29 07:15:22;;;;;;;26.98;25.77;;;;;;;;;;5112932;28;20414;-70
2023/12/29 07:17:50;;;;;;;49.75;47.55;;;;;;;;;;5113246;28;20059;-69
2023/12/29 07:20:16;;;;;;;45.35;43.58;;;;;;;;;;5113611;28;20520;-69
2023/12/29 07:22:43;;;;;;;44.08;42.28;;;;;;;;;;5113023;28;20047;-68
2023/12/29 07:25:11;;;;;;;50.85;48.55;;;;;;;;;;5112978;28;20048;-69
2023/12/29 07:27:37;;;;;;;51.17;48.97;;;;;;;;;;5104184;28;20044;-69
2023/12/29 07:30:04;;;;;;;51.38;48.78;;;;;;;;;;5123124;27;20055;-68
2023/12/29 07:32:31;;;;;;;59.40;56.72;;;;;;;;;;5111598;27;20051;-71
2023/12/29 07:34:59;;;;;;;58.92;55.55;;;;;;;;;;5117492;27;20044;-69
2023/12/29 07:37:25;;;;;;;48.75;46.60;;;;;;;;;;5112997;28;20048;-71
2023/12/29 07:39:52;;;;;;;50.58;48.40;;;;;;;;;;5091045;28;20048;-69
2023/12/29 07:42:18;;;;;;;60.05;57.70;;;;;;;;;;5110056;28;20074;-69
2023/12/29 07:44:45;;;;;;;54.83;52.58;;;;;;;;;;5101711;27;20528;-71
2023/12/29 07:47:12;;;;;;;56.92;54.67;;;;;;;;;;5111014;28;20046;-69
2023/12/29 07:49:38;;;;;;;58.38;55.38;;;;;;;;;;5113682;27;20090;-69
2023/12/29 07:52:06;;;;;;;62.67;60.10;;;;;;;;;;5115874;27;20043;-70
2023/12/29 07:54:33;;;;;;;66.63;64.03;;;;;;;;;;5112316;27;20051;-69
2023/12/29 07:56:59;;;;;;;59.42;56.90;;;;;;;;;;5114763;27;20114;-69
2023/12/29 07:59:26;;;;;;;66.40;64.00;;;;;;;;;;5110691;27;20052;-69
2023/12/29 08:01:53;;;;;;;58.95;56.83;;;;;;;;;;5110166;27;20101;-69
2023/12/29 08:04:19;;;;;;;29.90;28.08;;;;;;;;;;5115620;27;20466;-68
2023/12/29 08:06:46;;;;;;;64.18;61.30;;;;;;;;;;5108299;28;20155;-69
2023/12/29 08:09:13;;;;;;;53.85;51.65;;;;;;;;;;5111255;27;20039;-68
2023/12/29 08:11:42;;;;;;;50.20;48.30;;;;;;;;;;5111045;28;20100;-69
2023/12/29 08:14:09;;;;;;;57.22;54.92;;;;;;;;;;5108981;28;20075;-68
2023/12/29 08:16:38;;;;;;;38.75;37.35;;;;;;;;;;5106171;28;20448;-69
2023/12/29 08:19:05;;;;;;;36.78;35.13;;;;;;;;;;5111343;28;20387;-68
2023/12/29 08:21:31;;;;;;;57.78;55.13;;;;;;;;;;5105925;28;20051;-67
2023/12/29 08:23:57;;;;;;;58.22;55.85;;;;;;;;;;5110037;28;20048;-69
2023/12/29 08:26:25;;;;;;;63.10;60.33;;;;;;;;;;5111452;28;20047;-68
2023/12/29 08:28:52;;;;;;;40.33;38.50;;;;;;;;;;5111613;28;20456;-68
2023/12/29 08:31:19;;;;;;;62.65;60.13;;;;;;;;;;5111731;28;20047;-71
2023/12/29 08:33:45;;;;;;;61.60;58.63;;;;;;;;;;5111230;28;20051;-70
2023/12/29 08:36:12;;;;;;;70.05;66.95;;;;;;;;;;5110717;28;20097;-68
2023/12/29 08:38:39;;;;;;;64.78;61.72;;;;;;;;;;5108844;28;20043;-69
2023/12/29 08:41:05;;;;;;;61.83;59.20;;;;;;;;;;5099795;28;20402;-70
2023/12/29 08:43:35;;;;;;;57.70;55.33;;;;;;;;;;5111530;28;20109;-68
2023/12/29 08:46:02;;;;;;;58.90;56.13;;;;;;;;;;5111308;28;20044;-68
2023/12/29 08:48:28;;;;;;;60.78;58.08;;;;;;;;;;5111478;28;20040;-69
2023/12/29 08:50:55;;;;;;;59.47;57.10;;;;;;;;;;5111641;28;20055;-68
2023/12/29 08:53:21;;;;;;;40.38;38.60;;;;;;;;;;5112185;28;20394;-69
2023/12/29 08:55:47;;;;;;;66.60;63.60;;;;;;;;;;5106147;28;20051;-68
2023/12/29 08:58:14;;;;;;;66.93;63.85;;;;;;;;;;5108644;28;20101;-69
2023/12/29 09:00:42;;;;;;;66.22;63.42;;;;;;;;;;5108106;28;20575;-70
2023/12/29 09:03:08;;;;;;;66.95;64.25;;;;;;;;;;5112182;28;20070;-68
2023/12/29 09:05:35;;;;;;;37.50;35.80;;;;;;;;;;5112103;28;20474;-69
2023/12/29 09:08:01;;;;;;;60.08;57.58;;;;;;;;;;5108656;28;20100;-68
2023/12/29 09:10:28;;;;;;;57.17;54.60;;;;;;;;;;5114915;28;20097;-69
2023/12/29 09:12:54;;;;;;;57.35;54.53;;;;;;;;;;5115414;27;20094;-68
2023/12/29 09:15:21;;;;;;;55.67;53.17;;;;;;;;;;5112073;27;20047;-69
2023/12/29 09:17:49;;;;;;;67.78;64.63;;;;;;;;;;5110319;27;20044;-68
2023/12/29 09:20:16;;;;;;;70.57;67.72;;;;;;;;;;5114148;27;20048;-69
2023/12/29 09:22:42;;;;;;;62.95;60.28;;;;;;;;;;5114745;27;20091;-68
2023/12/29 09:25:09;;;;;;;36.65;34.80;;;;;;;;;;5116278;27;20450;-68
2023/12/29 09:27:35;;;;;;;59.08;56.58;;;;;;;;;;5114912;28;20051;-70
2023/12/29 09:30:02;;;;;;;65.57;62.50;;;;;;;;;;5118599;27;20093;-68
2023/12/29 09:32:28;;;;;;;63.40;60.35;;;;;;;;;;5121514;27;20048;-68
2023/12/29 09:34:56;;;;;;;67.03;63.78;;;;;;;;;;5114715;28;20210;-67
2023/12/29 09:37:23;;;;;;;84.65;81.22;;;;;;;;;;5114773;28;20055;-68
2023/12/29 09:39:49;;;;;;;71.35;68.30;;;;;;;;;;5114581;28;20051;-68
2023/12/29 09:42:20;;;;;;;66.93;64.10;;;;;;;;;;5099769;28;20055;-69
2023/12/29 09:44:50;;;;;;;75.35;72.28;;;;;;;;;;5109261;28;20167;-68
2023/12/29 09:47:18;;;;;;;75.43;71.82;;;;;;;;;;5115044;28;20051;-69
2023/12/29 09:49:45;;;;;;;47.22;44.83;;;;;;;;;;5114627;28;20448;-69
2023/12/29 09:52:14;;;;;;;43.83;41.75;;;;;;;;;;5114831;28;20452;-67
2023/12/29 09:54:40;;;;;;;69.22;66.00;;;;;;;;;;5112990;28;20051;-72
2023/12/29 09:57:08;;;;;;;60.22;57.55;;;;;;;;;;5114617;28;20115;-68
2023/12/29 09:59:36;;;;;;;69.20;65.68;;;;;;;;;;5097145;28;20047;-69
2023/12/29 10:02:03;;;;;;;75.35;71.90;;;;;;;;;;5102595;28;20047;-69
2023/12/29 10:04:30;;;;;;;67.07;64.22;;;;;;;;;;5114412;28;20048;-69
2023/12/29 10:06:57;;;;;;;53.10;50.47;;;;;;;;;;5113701;28;20439;-70
2023/12/29 10:09:26;;;;;;;62.05;59.55;;;;;;;;;;5114568;28;20039;-69
2023/12/29 10:11:52;;;;;;;68.32;64.93;;;;;;;;;;5114353;28;20104;-69
2023/12/29 10:14:23;;;;;;;66.50;63.35;;;;;;;;;;5114166;28;20047;-71
2023/12/29 10:16:54;;;;;;;64.03;61.17;;;;;;;;;;5107932;27;20417;-69
2023/12/29 10:19:21;;;;;;;;;;;;;;;;;;5121233;27;20176;-69
2023/12/29 10:21:50;;;;;;;62.33;59.25;;;;;;;;;;5124370;27;19949;-69
2023/12/29 10:24:18;;;;;;;82.38;78.95;;;;;;;;;;5114374;28;20051;-69
2023/12/29 10:26:46;;;;;;;53.35;50.70;;;;;;;;;;5113983;28;20447;-69
2023/12/29 10:29:13;;;;;;;79.22;76.20;;;;;;;;;;5113887;28;20046;-69
2023/12/29 10:31:39;;;;;;;78.85;75.57;;;;;;;;;;5112288;28;20454;-70
2023/12/29 10:34:19;;;;;;;85.53;82.25;;;;;;;;;;5102694;27;20044;-70
2023/12/29 10:36:48;;;;;;;76.00;72.75;;;;;;;;;;5127837;27;20074;-71
2023/12/29 10:39:15;;;;;;;87.25;83.72;;;;;;;;;;5122806;27;20083;-70
2023/12/29 10:41:42;;;;;;;70.97;68.32;;;;;;;;;;5113701;28;20119;-69
2023/12/29 10:44:10;;;;;;;81.53;78.53;;;;;;;;;;5113879;27;20078;-69
2023/12/29 10:46:36;;;;;;;74.88;72.03;;;;;;;;;;5121889;27;20050;-68
2023/12/29 10:49:08;;;;;;;49.30;46.35;;;;;;;;;;5114570;27;20463;-70
2023/12/29 10:51:34;;;;;;;88.72;84.88;;;;;;;;;;5113403;28;20119;-69
2023/12/29 10:54:01;;;;;;;79.90;76.65;;;;;;;;;;5105742;27;20096;-69
2023/12/29 10:56:28;;;;;;;89.43;85.75;;;;;;;;;;5113532;28;20044;-69
2023/12/29 10:58:58;;;;;;;92.00;87.82;;;;;;;;;;5114605;27;20040;-69
2023/12/29 11:01:26;;;;;;;84.93;80.97;;;;;;;;;;5108211;27;20050;-69
2023/12/29 11:03:58;;;;;;;90.10;86.50;;;;;;;;;;5113182;28;20117;-69
2023/12/29 11:06:25;;;;;;;85.38;80.95;;;;;;;;;;5109029;27;20055;-68
2023/12/29 11:08:51;;;;;;;77.63;74.22;;;;;;;;;;5124366;27;20734;-68
2023/12/29 11:11:18;;;;;;;58.85;55.25;;;;;;;;;;5109021;27;20366;-68
2023/12/29 11:13:45;;;;;;;78.45;75.05;;;;;;;;;;5110101;28;20048;-69
2023/12/29 11:16:12;;;;;;;73.32;70.57;;;;;;;;;;5112376;28;20056;-69
2023/12/29 11:18:42;;;;;;;95.22;91.60;;;;;;;;;;5112277;28;20052;-68
2023/12/29 11:21:09;;;;;;;88.45;84.57;;;;;;;;;;5113019;28;20489;-68
2023/12/29 11:23:35;;;;;;;85.63;81.43;;;;;;;;;;5112715;28;20108;-71
2023/12/29 11:26:03;;;;;;;98.93;94.13;;;;;;;;;;5112639;28;20108;-69
2023/12/29 11:28:29;;;;;;;95.85;89.53;;;;;;;;;;5109159;28;20040;-69
2023/12/29 11:30:56;;;;;;;85.00;81.80;;;;;;;;;;5106480;28;20112;-69
2023/12/29 11:33:25;;;;;;;96.10;91.63;;;;;;;;;;5111598;28;20036;-68
2023/12/29 11:35:55;;;;;;;95.18;90.47;;;;;;;;;;5110789;28;20050;-69
2023/12/29 11:38:30;;;;;;;92.97;88.32;;;;;;;;;;5110833;28;20522;-69
2023/12/29 11:41:02;;;;;;;93.45;88.88;;;;;;;;;;5105300;28;20039;-69
2023/12/29 11:43:28;;;;;;;93.70;89.60;;;;;;;;;;5112962;28;20093;-69
2023/12/29 11:45:55;;;;;;;98.72;94.53;;;;;;;;;;5108972;27;20052;-68
2023/12/29 11:48:36;;;;;;;110.68;106.10;;;;;;;;;;5104545;28;20101;-70
2023/12/29 11:51:24;;;;;;;112.18;107.63;;;;;;;;;;5099985;27;20113;-70
2023/12/29 11:53:51;;;;;;;96.05;92.28;;;;;;;;;;5104901;28;20091;-68
2023/12/29 11:56:17;;;;;;;109.18;105.18;;;;;;;;;;5119910;27;20122;-68
2023/12/29 11:58:44;;;;;;;110.82;106.82;;;;;;;;;;5104633;28;20047;-68
2023/12/29 12:01:11;;;;;;;109.30;105.15;;;;;;;;;;5112464;27;20047;-70
2023/12/29 12:03:37;;;;;;;115.53;111.15;;;;;;;;;;5112277;28;20048;-67
2023/12/29 12:06:05;;;;;;;121.50;117.25;;;;;;;;;;5115969;27;20493;-68
2023/12/29 12:08:34;;;;;;;115.65;111.60;;;;;;;;;;5113699;27;20047;-68
2023/12/29 12:11:15;;;;;;;110.95;106.85;;;;;;;;;;5114157;27;20083;-69
2023/12/29 12:13:45;;;;;;;117.75;113.72;;;;;;;;;;5103750;28;20100;-68
2023/12/29 12:16:44;;;;;;;133.40;128.65;;;;;;;;;;5111808;28;20051;-68
2023/12/29 12:19:11;;;;;;;122.82;118.63;;;;;;;;;;5099432;28;20126;-71
2023/12/29 12:21:39;;;;;;;131.35;126.72;;;;;;;;;;5098752;28;20051;-68
2023/12/29 12:24:06;;;;;;;127.65;123.30;;;;;;;;;;5097913;28;20108;-69
2023/12/29 12:26:32;;;;;;;138.77;134.02;;;;;;;;;;5090983;28;20094;-69
2023/12/29 12:28:59;;;;;;;127.82;123.40;;;;;;;;;;5103302;28;20096;-68
2023/12/29 12:31:26;;;;;;;135.82;131.25;;;;;;;;;;5111662;28;20065;-70
2023/12/29 12:33:56;;;;;;;143.23;138.43;;;;;;;;;;5111087;28;20050;-69
2023/12/29 12:36:22;;;;;;;150.20;144.45;;;;;;;;;;5111273;28;20075;-68
2023/12/29 12:38:53;;;;;;;147.63;142.48;;;;;;;;;;5111224;28;20043;-69
2023/12/29 12:41:20;;;;;;;141.77;136.70;;;;;;;;;;5107817;28;20509;-68
2023/12/29 12:43:51;;;;;;;138.90;134.07;;;;;;;;;;5105291;28;20100;-70
2023/12/29 12:46:17;;;;;;;143.65;138.98;;;;;;;;;;5091677;28;20494;-68
2023/12/29 12:48:45;;;;;;;168.45;163.20;;;;;;;;;;5091952;28;20048;-68
2023/12/29 12:51:12;;;;;;;181.45;175.55;;;;;;;;;;5091934;28;20056;-69
2023/12/29 12:53:40;;;;;;;171.50;165.90;;;;;;;;;;5091801;28;20056;-68
2023/12/29 12:56:08;;;;;;;176.63;170.93;;;;;;;;;;5091683;28;20060;-68
2023/12/29 12:58:35;;;;;;;171.55;166.15;;;;;;;;;;5091657;28;20452;-73
2023/12/29 13:01:02;;;;;;;175.52;169.80;;;;;;;;;;5101703;28;20128;-69
2023/12/29 13:03:29;;;;;;;163.77;158.48;;;;;;;;;;5094245;28;20047;-69
2023/12/29 13:05:57;;;;;;;165.45;160.15;;;;;;;;;;5091627;28;20048;-70
2023/12/29 13:08:24;;;;;;;170.75;165.45;;;;;;;;;;5091516;28;20050;-69
2023/12/29 13:10:51;;;;;;;170.15;164.73;;;;;;;;;;5091828;28;20534;-69
2023/12/29 13:13:19;;;;;;;193.18;187.15;;;;;;;;;;5091453;28;20498;-68
2023/12/29 13:15:47;;;;;;;169.27;163.77;;;;;;;;;;5091438;28;20052;-69
2023/12/29 13:18:13;;;;;;;190.68;184.77;;;;;;;;;;5095818;28;20074;-68
2023/12/29 13:20:46;;;;;;;196.18;190.18;;;;;;;;;;5106908;28;20150;-69
2023/12/29 13:23:13;;;;;;;126.63;122.13;;;;;;;;;;5091326;28;20677;-68
2023/12/29 13:25:40;;;;;;;203.10;196.52;;;;;;;;;;5091413;28;20117;-67
2023/12/29 13:28:07;;;;;;;185.98;179.95;;;;;;;;;;5091334;28;20040;-68
2023/12/29 13:30:35;;;;;;;185.60;179.57;;;;;;;;;;5091203;28;20048;-67
2023/12/29 13:33:08;;;;;;;198.60;192.35;;;;;;;;;;5090949;28;20055;-69
2023/12/29 13:35:36;;;;;;;202.65;196.18;;;;;;;;;;5098639;28;20134;-68
2023/12/29 13:38:07;;;;;;;201.73;194.68;;;;;;;;;;5107890;28;20059;-68
2023/12/29 13:40:36;;;;;;;201.15;194.13;;;;;;;;;;5099208;28;20040;-69
2023/12/29 13:43:04;;;;;;;145.45;139.93;;;;;;;;;;5094259;28;20383;-68
2023/12/29 13:45:29;;;;;;;190.98;184.43;;;;;;;;;;5094935;28;20055;-71
2023/12/29 13:47:58;;;;;;;138.93;133.85;;;;;;;;;;5094937;28;20405;-68
2023/12/29 13:50:25;;;;;;;188.10;181.63;;;;;;;;;;5094805;28;20056;-68
2023/12/29 13:52:51;;;;;;;195.63;188.93;;;;;;;;;;5111769;28;20055;-68
2023/12/29 13:55:21;;;;;;;190.20;182.88;;;;;;;;;;5111996;28;20040;-68
2023/12/29 13:57:48;;;;;;;197.15;190.27;;;;;;;;;;5106351;28;20510;-70
2023/12/29 14:00:15;;;;;;;167.40;161.02;;;;;;;;;;5112684;28;20036;-69
2023/12/29 14:02:44;;;;;;;200.90;194.00;;;;;;;;;;5112762;28;20051;-69
2023/12/29 14:05:15;;;;;;;185.93;179.40;;;;;;;;;;5114678;28;20101;-69
2023/12/29 14:07:45;;;;;;;193.50;186.77;;;;;;;;;;5115045;27;20059;-70
2023/12/29 14:10:11;;;;;;;193.70;186.27;;;;;;;;;;5120705;27;20554;-70
2023/12/29 14:12:38;;;;;;;182.32;175.07;;;;;;;;;;5114293;27;20067;-69
2023/12/29 14:15:05;;;;;;;186.18;179.35;;;;;;;;;;5114292;28;20097;-69